Dogwood City, Texas
Current Conditions -  °F | °C
As of 8:53 PM on Wednesday 22 Oct 2014 (Local Time) from KTYR Reporting Station
Clear Clear  
Wind Chill: 20°   Ceiling: Unl
Heat Index: 20°   Visibility: 10mi
Dew Point: 12°   Wind: 6mph
Humidity: 61%   Direction: 80°E
Pressure: 30.13"   Gusts: NA
Location:  32.2242°N, 95.404°W
Report Text: KTYR 230153Z 08005KT 10SM CLR 20/12 A3013 RMK AO2 SLP197 T02000122
Loading
Personal Weather Stations






























Interactive Weather Map
Tropical Storm Tracking
New forecast layout! Learn more

10-Day Weather Forecast

Advertisements
Track Severe Weather on mobile